createdAt,value
2024-01-16T00:00:03.499Z,9.00
2024-01-16T00:02:31.481Z,9.00
2024-01-16T00:04:59.496Z,8.25
2024-01-16T00:07:27.504Z,8.50
2024-01-16T00:09:55.760Z,7.50
2024-01-16T00:12:25.103Z,7.50
2024-01-16T00:14:53.088Z,9.00
2024-01-16T00:17:21.135Z,9.00
2024-01-16T00:19:49.390Z,7.25
2024-01-16T00:22:17.297Z,8.25
2024-01-16T00:24:45.323Z,9.00
2024-01-16T00:27:13.278Z,8.00
2024-01-16T00:29:42.958Z,7.75
2024-01-16T00:32:11.061Z,8.00
2024-01-16T00:34:39.141Z,7.50
2024-01-16T00:37:07.114Z,9.00
2024-01-16T00:39:35.419Z,6.50
2024-01-16T00:42:03.934Z,8.00
2024-01-16T00:44:31.930Z,6.25
2024-01-16T00:47:02.969Z,6.75
2024-01-16T00:49:31.594Z,7.00
2024-01-16T00:51:59.662Z,6.50
2024-01-16T00:54:27.759Z,7.75
2024-01-16T00:57:00.534Z,6.75
2024-01-16T00:59:28.580Z,5.50
2024-01-16T01:01:56.872Z,7.00
2024-01-16T01:04:26.228Z,7.00
2024-01-16T01:06:54.650Z,7.00
2024-01-16T01:09:22.918Z,5.75
2024-01-16T01:11:51.197Z,5.50
2024-01-16T01:14:19.406Z,7.00
2024-01-16T01:16:47.498Z,6.50
2024-01-16T01:19:15.521Z,6.75
2024-01-16T01:21:45.254Z,6.00
2024-01-16T01:24:13.160Z,5.25
2024-01-16T01:26:41.179Z,6.00
2024-01-16T01:29:08.263Z,6.50
2024-01-16T01:31:36.299Z,5.75
2024-01-16T01:34:05.604Z,6.00
2024-01-16T01:36:33.648Z,5.00
2024-01-16T01:39:04.151Z,6.00
2024-01-16T01:41:32.447Z,5.25
2024-01-16T01:44:00.492Z,5.75
2024-01-16T01:46:28.650Z,6.00
2024-01-16T01:48:56.694Z,5.00
2024-01-16T01:51:25.789Z,5.50
2024-01-16T01:53:53.996Z,5.50
2024-01-16T01:56:23.394Z,5.00
2024-01-16T01:58:54.535Z,6.00
2024-01-16T02:01:22.844Z,6.00
2024-01-16T02:03:51.763Z,5.00
2024-01-16T02:06:19.929Z,6.25
2024-01-16T02:08:48.101Z,5.00
2024-01-16T02:11:16.619Z,5.25
2024-01-16T02:13:46.002Z,6.00
2024-01-16T02:16:21.099Z,5.00
2024-01-16T02:18:49.246Z,5.75
2024-01-16T02:21:20.072Z,4.00
2024-01-16T02:23:49.456Z,5.00
2024-01-16T02:26:17.961Z,5.75
2024-01-16T02:28:45.900Z,4.25
2024-01-16T02:31:14.233Z,5.00
2024-01-16T02:33:42.226Z,5.00
2024-01-16T02:36:10.376Z,6.50
2024-01-16T02:38:38.364Z,5.25
2024-01-16T02:41:09.472Z,5.00
2024-01-16T02:43:37.482Z,4.00
2024-01-16T02:46:05.711Z,5.25
2024-01-16T02:48:33.753Z,5.00
2024-01-16T02:51:02.001Z,5.00
2024-01-16T02:53:30.161Z,5.25
2024-01-16T02:55:59.698Z,5.00
2024-01-16T02:58:29.099Z,4.00
2024-01-16T03:00:57.387Z,6.00
2024-01-16T03:03:25.605Z,4.25
2024-01-16T03:05:53.687Z,5.00
2024-01-16T03:08:23.198Z,5.25
2024-01-16T03:10:51.623Z,5.00
2024-01-16T03:13:19.637Z,4.00
2024-01-16T03:15:49.079Z,5.00
2024-01-16T03:18:17.129Z,5.00
2024-01-16T03:20:45.633Z,6.50
2024-01-16T03:23:13.734Z,5.00
2024-01-16T03:25:41.694Z,4.00
2024-01-16T03:28:11.701Z,5.00
2024-01-16T03:30:40.034Z,4.50
2024-01-16T03:33:09.630Z,4.00
2024-01-16T03:35:38.008Z,6.00
2024-01-16T03:38:06.385Z,4.50
2024-01-16T03:40:35.641Z,4.00
2024-01-16T03:43:03.734Z,4.00
2024-01-16T03:45:31.721Z,5.50
2024-01-16T03:48:00.640Z,4.25
2024-01-16T03:50:30.362Z,5.00
2024-01-16T03:52:58.380Z,4.00
2024-01-16T03:55:26.772Z,4.00
2024-01-16T03:57:54.875Z,4.00
2024-01-16T04:00:23.210Z,5.00
2024-01-16T04:02:51.250Z,4.00
2024-01-16T04:05:19.317Z,5.00
2024-01-16T04:07:48.779Z,4.00
2024-01-16T04:10:17.144Z,5.00
2024-01-16T04:12:45.103Z,4.00
2024-01-16T04:15:13.049Z,5.25
2024-01-16T04:17:41.125Z,4.00
2024-01-16T04:20:10.422Z,5.25
2024-01-16T04:22:39.288Z,7.00
2024-01-16T04:25:09.052Z,5.00
2024-01-16T04:27:36.988Z,4.00
2024-01-16T04:30:08.256Z,4.00
2024-01-16T04:32:36.351Z,4.50
2024-01-16T04:35:04.834Z,4.00
2024-01-16T04:37:32.825Z,4.00
2024-01-16T04:40:01.320Z,5.00
2024-01-16T04:42:30.682Z,5.00
2024-01-16T04:44:58.842Z,3.25
2024-01-16T04:47:26.910Z,3.00
2024-01-16T04:49:55.788Z,4.00
2024-01-16T04:52:23.770Z,4.25
2024-01-16T04:54:51.753Z,4.00
2024-01-16T04:57:19.715Z,3.50
2024-01-16T04:59:49.419Z,5.00
2024-01-16T05:02:18.387Z,4.00
2024-01-16T05:04:46.697Z,4.00
2024-01-16T05:07:14.689Z,3.50
2024-01-16T05:09:43.040Z,4.50
2024-01-16T05:12:11.009Z,3.00
2024-01-16T05:14:39.098Z,4.00
2024-01-16T05:17:09.278Z,3.50
2024-01-16T05:19:37.738Z,5.50
2024-01-16T05:22:05.966Z,5.50
2024-01-16T05:24:34.545Z,6.00
2024-01-16T05:27:02.473Z,6.75
2024-01-16T05:29:30.534Z,7.50
2024-01-16T05:31:58.565Z,8.00
2024-01-16T05:34:28.910Z,6.50
2024-01-16T05:36:56.935Z,7.00
2024-01-16T05:39:24.891Z,7.75
2024-01-16T05:41:53.207Z,9.50
2024-01-16T05:44:21.308Z,8.00
2024-01-16T05:46:49.279Z,9.25
2024-01-16T05:49:17.273Z,9.00
2024-01-16T05:51:47.243Z,9.25
2024-01-16T05:54:15.205Z,9.00
2024-01-16T05:56:43.156Z,9.00
2024-01-16T05:59:11.127Z,11.50
2024-01-16T06:01:39.917Z,8.75
2024-01-16T06:04:07.902Z,9.00
2024-01-16T06:06:35.948Z,9.75
2024-01-16T06:09:06.450Z,9.00
2024-01-16T06:11:35.866Z,10.00
2024-01-16T06:14:03.918Z,8.00
2024-01-16T06:16:31.882Z,9.00
2024-01-16T06:18:59.949Z,8.00
2024-01-16T06:21:28.769Z,8.25
2024-01-16T06:23:56.799Z,9.50
2024-01-16T06:26:26.325Z,9.00
2024-01-16T06:28:54.309Z,8.75
2024-01-16T06:31:22.657Z,8.50
2024-01-16T06:33:51.630Z,7.75
2024-01-16T06:36:19.635Z,7.75
2024-01-16T06:38:47.637Z,7.25
2024-01-16T06:41:15.946Z,6.00
2024-01-16T06:43:45.313Z,7.25
2024-01-16T06:46:13.328Z,7.00
2024-01-16T06:48:41.438Z,8.50
2024-01-16T06:51:11.629Z,7.00
2024-01-16T06:53:39.611Z,6.25
2024-01-16T06:56:08.783Z,7.25
2024-01-16T06:58:37.043Z,6.00
2024-01-16T07:01:06.822Z,8.00
2024-01-16T07:03:34.911Z,6.25
2024-01-16T07:06:03.702Z,6.00
2024-01-16T07:08:31.904Z,5.00
2024-01-16T07:11:00.284Z,6.00
2024-01-16T07:13:28.237Z,7.00
2024-01-16T07:15:56.166Z,6.50
2024-01-16T07:18:25.667Z,6.00
2024-01-16T07:20:54.142Z,5.25
2024-01-16T07:23:22.215Z,5.00
2024-01-16T07:25:50.226Z,5.00
2024-01-16T07:28:18.209Z,6.00
2024-01-16T07:30:46.550Z,5.25
2024-01-16T07:33:14.666Z,5.50
2024-01-16T07:35:48.949Z,5.00
2024-01-16T07:38:17.320Z,5.00
2024-01-16T07:40:45.615Z,5.25
2024-01-16T07:43:14.037Z,5.00
2024-01-16T07:45:42.020Z,4.50
2024-01-16T07:48:10.068Z,5.00
2024-01-16T07:50:38.417Z,5.00
2024-01-16T07:53:07.839Z,4.50
2024-01-16T07:55:35.837Z,4.00
2024-01-16T07:58:05.026Z,5.25
2024-01-16T08:00:33.335Z,5.00
2024-01-16T08:03:01.402Z,4.50
2024-01-16T08:05:31.310Z,4.00
2024-01-16T08:07:59.413Z,4.00
2024-01-16T08:10:29.011Z,5.00
2024-01-16T08:12:57.030Z,4.75
2024-01-16T08:15:25.044Z,4.00
2024-01-16T08:17:53.093Z,4.00
2024-01-16T08:20:21.369Z,3.00
2024-01-16T08:22:51.355Z,3.25
2024-01-16T08:25:19.378Z,3.25
2024-01-16T08:27:49.943Z,4.00
2024-01-16T08:30:18.528Z,4.00
2024-01-16T08:32:46.562Z,4.00
2024-01-16T08:35:14.753Z,3.00
2024-01-16T08:37:42.749Z,4.00
2024-01-16T08:40:12.772Z,3.50
2024-01-16T08:42:40.814Z,3.00
2024-01-16T08:45:11.784Z,3.50
2024-01-16T08:47:39.834Z,3.00
2024-01-16T08:50:10.356Z,4.00
2024-01-16T08:52:38.390Z,3.00
2024-01-16T08:55:07.025Z,4.25
2024-01-16T08:57:34.950Z,2.25
2024-01-16T09:00:04.210Z,3.75
2024-01-16T09:02:33.638Z,3.00
2024-01-16T09:05:01.747Z,4.00
2024-01-16T09:07:29.925Z,3.50
2024-01-16T09:09:58.222Z,3.00
2024-01-16T09:12:27.571Z,3.50
2024-01-16T09:14:55.705Z,3.25
2024-01-16T09:17:23.822Z,2.25
2024-01-16T09:19:53.636Z,3.00
2024-01-16T09:22:21.655Z,4.00
2024-01-16T09:24:49.729Z,3.00
2024-01-16T09:27:17.775Z,3.25
2024-01-16T09:29:46.122Z,3.00
2024-01-16T09:32:14.343Z,3.25
2024-01-16T09:34:42.391Z,3.00
2024-01-16T09:37:11.818Z,3.00
2024-01-16T09:39:40.018Z,3.00
2024-01-16T09:42:07.994Z,3.25
2024-01-16T09:44:36.467Z,3.00
2024-01-16T09:47:05.627Z,3.00
2024-01-16T09:49:33.824Z,2.25
2024-01-16T09:52:03.128Z,2.50
2024-01-16T09:54:32.487Z,3.00
2024-01-16T09:57:01.071Z,3.00
2024-01-16T09:59:29.131Z,3.00
2024-01-16T10:01:57.235Z,3.00
2024-01-16T10:04:25.350Z,3.00
2024-01-16T10:06:53.491Z,3.25
2024-01-16T10:09:21.767Z,3.00
2024-01-16T10:11:51.105Z,3.00
2024-01-16T10:14:19.803Z,3.00
2024-01-16T10:16:58.192Z,3.00
2024-01-16T10:19:35.206Z,3.00
2024-01-16T10:22:10.968Z,2.25
2024-01-16T10:24:38.946Z,2.00
2024-01-16T10:27:08.985Z,2.00
2024-01-16T10:29:46.730Z,2.75
2024-01-16T10:32:29.148Z,2.50
2024-01-16T10:35:05.442Z,2.50
2024-01-16T10:37:33.843Z,2.75
2024-01-16T10:40:02.071Z,3.00
2024-01-16T10:42:31.394Z,2.50
2024-01-16T10:44:59.480Z,2.25
2024-01-16T10:47:27.427Z,2.00
2024-01-16T10:49:55.747Z,3.00
2024-01-16T10:52:24.341Z,2.25
2024-01-16T10:54:52.347Z,2.75
2024-01-16T10:57:20.278Z,2.00
2024-01-16T10:59:53.382Z,2.25
2024-01-16T11:02:22.778Z,2.75
2024-01-16T11:04:51.597Z,2.00
2024-01-16T11:07:19.823Z,3.00
2024-01-16T11:09:48.521Z,2.75
2024-01-16T11:12:17.909Z,2.50
2024-01-16T11:14:46.958Z,2.00
2024-01-16T11:17:19.762Z,2.25
2024-01-16T11:20:01.978Z,3.00
2024-01-16T11:22:38.418Z,3.00
2024-01-16T11:25:13.239Z,2.75
2024-01-16T11:27:41.296Z,1.25
2024-01-16T11:30:13.552Z,2.50
2024-01-16T11:32:43.716Z,2.00
2024-01-16T11:35:12.703Z,3.00
2024-01-16T11:37:42.071Z,3.00
2024-01-16T11:40:29.263Z,2.75
2024-01-16T11:42:58.002Z,3.25
2024-01-16T11:45:56.135Z,3.00
2024-01-16T11:48:25.605Z,3.00
2024-01-16T11:50:54.221Z,2.00
2024-01-16T11:53:34.428Z,2.00
2024-01-16T11:56:41.169Z,3.00
2024-01-16T11:59:29.826Z,2.50
2024-01-16T12:02:02.329Z,2.00
2024-01-16T12:04:32.922Z,2.00
2024-01-16T12:07:01.747Z,2.00
2024-01-16T12:09:30.530Z,2.00
2024-01-16T12:11:59.464Z,3.00
2024-01-16T12:14:27.515Z,2.50
2024-01-16T12:16:55.497Z,2.00
2024-01-16T12:19:24.121Z,2.75
2024-01-16T12:21:53.580Z,3.00
2024-01-16T12:24:21.608Z,2.00
2024-01-16T12:26:49.671Z,2.75
2024-01-16T12:29:20.104Z,3.00
2024-01-16T12:31:48.087Z,3.00
2024-01-16T12:34:16.170Z,2.00
2024-01-16T12:36:44.910Z,2.00
2024-01-16T12:39:14.442Z,2.25
2024-01-16T12:41:43.853Z,3.00
2024-01-16T12:44:16.438Z,2.25
2024-01-16T12:46:46.712Z,3.00
2024-01-16T12:49:14.873Z,2.00
2024-01-16T12:51:43.289Z,3.00
2024-01-16T12:54:16.547Z,3.00
2024-01-16T12:56:44.778Z,2.75
2024-01-16T12:59:13.866Z,3.00
2024-01-16T13:01:43.141Z,3.00
2024-01-16T13:04:11.245Z,2.50
2024-01-16T13:06:39.704Z,3.00
2024-01-16T13:09:11.916Z,2.25
2024-01-16T13:14:37.336Z,1.75
2024-01-16T13:17:07.739Z,1.75
2024-01-16T13:19:35.780Z,3.50
2024-01-16T13:22:05.340Z,2.50
2024-01-16T13:24:33.293Z,3.00
2024-01-16T13:27:01.910Z,2.00
2024-01-16T13:29:30.109Z,3.00
2024-01-16T13:32:00.583Z,3.00
2024-01-16T13:34:28.545Z,3.00
2024-01-16T13:37:09.185Z,2.50
2024-01-16T13:39:43.798Z,3.25
2024-01-16T13:42:11.802Z,3.00
2024-01-16T13:44:39.848Z,2.75
2024-01-16T13:47:12.226Z,3.00
2024-01-16T13:49:43.123Z,2.00
2024-01-16T13:52:11.339Z,3.00
2024-01-16T13:54:40.905Z,2.25
2024-01-16T13:57:10.625Z,2.00
2024-01-16T13:59:39.986Z,2.00
2024-01-16T14:02:09.931Z,2.75
2024-01-16T14:04:38.285Z,2.00
2024-01-16T14:09:37.986Z,2.00
2024-01-16T14:12:09.712Z,2.25
2024-01-16T14:14:39.560Z,2.75
2024-01-16T14:17:09.208Z,3.00
2024-01-16T14:19:37.330Z,2.00
2024-01-16T14:22:05.748Z,3.00
2024-01-16T14:24:33.754Z,3.00
2024-01-16T14:27:01.715Z,2.75
2024-01-16T14:29:30.540Z,3.00
2024-01-16T14:31:59.806Z,3.00
2024-01-16T14:34:29.524Z,2.00
2024-01-16T14:36:57.506Z,2.00
2024-01-16T14:39:27.641Z,3.25
2024-01-16T14:41:56.346Z,3.25
2024-01-16T14:44:24.405Z,3.00
2024-01-16T14:46:55.358Z,3.00
2024-01-16T14:49:23.645Z,2.50
2024-01-16T14:51:53.597Z,2.75
2024-01-16T14:54:21.592Z,2.75
2024-01-16T14:56:49.928Z,3.00
2024-01-16T14:59:18.272Z,3.00
2024-01-16T15:01:46.541Z,2.75
2024-01-16T15:04:14.651Z,3.00
2024-01-16T15:06:43.148Z,2.75
2024-01-16T15:09:13.862Z,2.00
2024-01-16T15:11:44.090Z,2.50
2024-01-16T15:14:16.732Z,3.50
2024-01-16T15:16:44.790Z,3.00
2024-01-16T15:19:12.900Z,3.00
2024-01-16T15:21:41.609Z,3.00
2024-01-16T15:24:09.707Z,2.00
2024-01-16T15:26:38.219Z,3.00
2024-01-16T15:29:07.503Z,3.00
2024-01-16T15:31:35.802Z,2.00
2024-01-16T15:34:03.918Z,2.00
2024-01-16T15:36:31.954Z,3.00
2024-01-16T15:38:59.989Z,3.00
2024-01-16T15:41:28.617Z,3.00
2024-01-16T15:43:58.288Z,3.00
2024-01-16T15:46:29.850Z,3.00
2024-01-16T15:48:58.225Z,3.00
2024-01-16T15:51:26.479Z,2.00
2024-01-16T15:53:54.446Z,3.00
2024-01-16T15:56:22.473Z,2.00
2024-01-16T15:58:50.810Z,2.75
2024-01-16T16:01:20.568Z,2.25
2024-01-16T16:03:48.565Z,3.00
2024-01-16T16:06:16.702Z,3.25
2024-01-16T16:08:44.787Z,3.00
2024-01-16T16:11:13.498Z,3.00
2024-01-16T16:13:41.521Z,2.50
2024-01-16T16:16:09.611Z,2.25
2024-01-16T16:18:39.052Z,2.50
2024-01-16T16:21:07.370Z,3.00
2024-01-16T16:23:35.380Z,3.00
2024-01-16T16:26:03.410Z,2.00
2024-01-16T16:28:31.349Z,2.25
2024-01-16T16:31:00.316Z,4.00
2024-01-16T16:33:28.414Z,4.75
2024-01-16T16:35:57.934Z,8.25
2024-01-16T16:38:26.152Z,10.25
2024-01-16T16:40:54.494Z,8.00
2024-01-16T16:43:22.426Z,11.25
2024-01-16T16:45:50.441Z,8.75
2024-01-16T16:48:18.544Z,8.00
2024-01-16T16:50:47.010Z,7.00
2024-01-16T16:53:16.686Z,9.00
2024-01-16T16:55:44.632Z,9.75
2024-01-16T16:58:13.417Z,10.75
2024-01-16T17:00:43.835Z,9.75
2024-01-16T17:03:11.986Z,9.00
2024-01-16T17:05:40.726Z,11.75
2024-01-16T17:08:10.081Z,12.00
2024-01-16T17:10:40.262Z,13.00
2024-01-16T17:13:08.241Z,10.50
2024-01-16T17:15:36.279Z,13.00
2024-01-16T17:18:04.948Z,10.75
2024-01-16T17:20:33.350Z,10.00
2024-01-16T17:23:01.409Z,12.00
2024-01-16T17:25:30.315Z,12.00
2024-01-16T17:27:59.746Z,11.75
2024-01-16T17:30:28.068Z,10.25
2024-01-16T17:32:56.171Z,9.75
2024-01-16T17:35:25.218Z,9.00
2024-01-16T17:37:53.792Z,9.00
2024-01-16T17:40:22.098Z,9.00
2024-01-16T17:42:50.060Z,9.25
2024-01-16T17:45:19.748Z,9.00
2024-01-16T17:47:48.153Z,9.00
2024-01-16T17:50:17.397Z,11.50
2024-01-16T17:52:44.407Z,11.00
2024-01-16T17:55:12.951Z,11.75
2024-01-16T17:57:41.928Z,14.50
2024-01-16T18:00:11.630Z,14.75
2024-01-16T18:02:41.449Z,13.50
2024-01-16T18:05:11.485Z,12.25
2024-01-16T18:07:39.641Z,12.00
2024-01-16T18:10:10.353Z,13.25
2024-01-16T18:12:39.733Z,13.50
2024-01-16T18:15:12.920Z,14.25
2024-01-16T18:17:42.521Z,14.75
2024-01-16T18:20:11.987Z,13.50
2024-01-16T18:22:40.053Z,14.75
2024-01-16T18:25:09.870Z,16.75
2024-01-16T18:27:38.107Z,14.50
2024-01-16T18:30:09.039Z,12.75
2024-01-16T18:32:37.207Z,14.00
2024-01-16T18:35:09.733Z,14.00
2024-01-16T18:37:38.494Z,15.25
2024-01-16T18:40:10.047Z,15.00
2024-01-16T18:42:38.123Z,12.75
2024-01-16T18:45:12.015Z,15.00
2024-01-16T18:47:40.576Z,13.00
2024-01-16T18:50:11.039Z,12.00
2024-01-16T18:52:41.125Z,13.50
2024-01-16T18:55:11.041Z,12.00
2024-01-16T18:57:40.459Z,12.50
2024-01-16T19:00:15.276Z,10.50
2024-01-16T19:02:44.189Z,11.25
2024-01-16T19:05:14.271Z,11.50
2024-01-16T19:07:42.770Z,10.00
2024-01-16T19:10:13.946Z,11.00
2024-01-16T19:12:47.234Z,11.00
2024-01-16T19:15:18.880Z,12.00
2024-01-16T19:17:47.676Z,10.00
2024-01-16T19:20:17.876Z,9.50
2024-01-16T19:22:46.222Z,10.00
2024-01-16T19:25:17.370Z,11.50
2024-01-16T19:27:48.948Z,13.75
2024-01-16T19:30:20.442Z,9.75
2024-01-16T19:32:49.971Z,13.75
2024-01-16T19:35:19.960Z,20.00
2024-01-16T19:37:48.098Z,19.00
2024-01-16T19:40:17.594Z,16.25
2024-01-16T19:42:45.797Z,14.25
2024-01-16T19:45:14.615Z,17.00
2024-01-16T19:47:43.748Z,16.00
2024-01-16T19:50:21.429Z,15.25
2024-01-16T19:52:53.120Z,15.00
2024-01-16T19:55:23.284Z,15.25
2024-01-16T19:57:51.723Z,15.75
2024-01-16T20:00:20.756Z,15.00
2024-01-16T20:02:49.100Z,18.25
2024-01-16T20:05:17.887Z,15.00
2024-01-16T20:07:46.418Z,16.25
2024-01-16T20:10:16.957Z,17.00
2024-01-16T20:12:45.183Z,15.25
2024-01-16T20:15:13.876Z,15.25
2024-01-16T20:17:42.201Z,16.50
2024-01-16T20:20:11.774Z,16.00
2024-01-16T20:22:39.862Z,13.50
2024-01-16T20:25:08.632Z,18.25
2024-01-16T20:27:38.063Z,20.00
2024-01-16T20:30:09.980Z,23.00
2024-01-16T20:32:38.253Z,19.00
2024-01-16T20:35:07.615Z,20.25
2024-01-16T20:37:35.668Z,19.00
2024-01-16T20:40:05.741Z,24.00
2024-01-16T20:42:33.856Z,23.00
2024-01-16T20:45:08.605Z,22.75
2024-01-16T20:47:36.904Z,21.50
2024-01-16T20:50:06.819Z,19.75
2024-01-16T20:52:35.181Z,21.75
2024-01-16T20:55:06.522Z,20.00
2024-01-16T20:57:34.849Z,21.50
2024-01-16T21:00:14.325Z,19.75
2024-01-16T21:02:43.410Z,19.50
2024-01-16T21:05:12.132Z,20.50
2024-01-16T21:07:40.594Z,19.25
2024-01-16T21:10:09.802Z,19.50
2024-01-16T21:12:38.141Z,17.75
2024-01-16T21:15:10.166Z,16.25
2024-01-16T21:17:38.230Z,17.50
2024-01-16T21:20:10.453Z,18.25
2024-01-16T21:22:38.520Z,15.25
2024-01-16T21:25:07.138Z,17.25
2024-01-16T21:27:35.261Z,16.00
2024-01-16T21:30:03.890Z,16.50
2024-01-16T21:32:33.401Z,16.50
2024-01-16T21:35:01.415Z,15.50
2024-01-16T21:37:29.430Z,15.75
2024-01-16T21:39:57.637Z,14.25
2024-01-16T21:42:25.638Z,19.75
2024-01-16T21:44:54.522Z,17.50
2024-01-16T21:47:25.133Z,19.00
2024-01-16T21:49:55.082Z,27.25
2024-01-16T21:52:23.055Z,19.75
2024-01-16T21:54:52.050Z,20.25
2024-01-16T21:57:20.061Z,16.50
2024-01-16T21:59:48.405Z,25.00
2024-01-16T22:02:18.472Z,22.75
2024-01-16T22:04:46.604Z,21.25
2024-01-16T22:07:16.022Z,20.00
2024-01-16T22:09:44.237Z,25.50
2024-01-16T22:12:12.290Z,22.75
2024-01-16T22:14:40.450Z,19.75
2024-01-16T22:17:09.448Z,19.25
2024-01-16T22:19:37.581Z,19.75
2024-01-16T22:22:05.780Z,20.00
2024-01-16T22:24:35.137Z,19.00
2024-01-16T22:27:03.244Z,19.00
2024-01-16T22:29:31.533Z,20.00
2024-01-16T22:31:59.872Z,19.00
2024-01-16T22:34:28.297Z,17.50
2024-01-16T22:36:56.358Z,16.25
2024-01-16T22:39:25.345Z,18.00
2024-01-16T22:41:55.483Z,19.75
2024-01-16T22:44:23.952Z,17.00
2024-01-16T22:46:52.194Z,19.00
2024-01-16T22:49:20.239Z,17.25
2024-01-16T22:51:48.680Z,18.25
2024-01-16T22:54:16.692Z,18.75
2024-01-16T22:56:44.828Z,20.00
2024-01-16T22:59:14.582Z,19.00
2024-01-16T23:01:43.342Z,19.25
2024-01-16T23:04:11.354Z,18.25
2024-01-16T23:06:39.366Z,20.00
2024-01-16T23:09:07.741Z,19.00
2024-01-16T23:11:36.106Z,19.25
2024-01-16T23:14:04.144Z,16.00
2024-01-16T23:16:33.705Z,18.25
2024-01-16T23:19:02.097Z,17.00
2024-01-16T23:21:30.436Z,17.50
2024-01-16T23:23:58.614Z,18.75
2024-01-16T23:26:27.078Z,18.00
2024-01-16T23:28:55.116Z,17.00
2024-01-16T23:31:23.328Z,17.50
2024-01-16T23:33:53.571Z,19.50
2024-01-16T23:36:21.698Z,18.50
2024-01-16T23:38:49.734Z,17.25
2024-01-16T23:41:19.218Z,17.50
2024-01-16T23:43:47.238Z,16.75
2024-01-16T23:46:14.734Z,16.00
2024-01-16T23:48:45.345Z,17.75
2024-01-16T23:51:15.326Z,15.50
2024-01-16T23:53:43.378Z,14.75
2024-01-16T23:56:12.260Z,15.50
2024-01-16T23:58:40.429Z,15.75
